createdAt,value
2017-01-24T00:00:47.871Z,50.81
2017-01-24T00:01:57.584Z,50.62
2017-01-24T00:03:07.307Z,50.72
2017-01-24T00:04:17.463Z,50.74
2017-01-24T00:05:28.048Z,51.01
2017-01-24T00:06:38.261Z,50.62
2017-01-24T00:07:47.970Z,50.81
2017-01-24T00:08:57.683Z,50.72
2017-01-24T00:10:08.275Z,50.62
2017-01-24T00:11:17.985Z,50.62
2017-01-24T00:12:27.762Z,50.81
2017-01-24T00:13:37.476Z,50.81
2017-01-24T00:14:47.624Z,50.62
2017-01-24T00:15:57.337Z,50.81
2017-01-24T00:17:07.498Z,50.91
2017-01-24T00:18:16.832Z,50.81
2017-01-24T00:19:26.989Z,50.72
2017-01-24T00:20:37.142Z,50.81
2017-01-24T00:21:47.296Z,50.81
2017-01-24T00:22:57.448Z,50.81
2017-01-24T00:24:07.217Z,50.81
2017-01-24T00:25:16.947Z,50.81
2017-01-24T00:26:26.232Z,50.72
2017-01-24T00:27:35.508Z,50.81
2017-01-24T00:28:45.226Z,50.72
2017-01-24T00:29:56.323Z,50.91
2017-01-24T00:31:05.600Z,50.62
2017-01-24T00:32:15.753Z,50.62
2017-01-24T00:33:25.902Z,50.72
2017-01-24T00:34:35.619Z,50.81
2017-01-24T00:35:45.857Z,50.81
2017-01-24T00:36:55.574Z,50.62
2017-01-24T00:38:05.291Z,50.72
2017-01-24T00:39:15.880Z,50.72
2017-01-24T00:40:25.597Z,50.52
2017-01-24T00:41:35.835Z,50.81
2017-01-24T00:42:45.992Z,50.81
2017-01-24T00:43:55.277Z,50.62
2017-01-24T00:45:04.995Z,50.81
2017-01-24T00:46:15.138Z,50.72
2017-01-24T00:47:25.339Z,50.81
2017-01-24T00:48:35.049Z,50.72
2017-01-24T00:49:44.331Z,50.62
2017-01-24T00:50:53.607Z,50.72
2017-01-24T00:52:03.761Z,50.62
2017-01-24T00:53:14.402Z,50.91
2017-01-24T00:54:23.679Z,50.81
2017-01-24T00:55:33.824Z,50.91
2017-01-24T00:56:44.418Z,50.91
2017-01-24T00:57:54.574Z,50.81
2017-01-24T00:59:05.216Z,50.52
2017-01-24T01:00:14.944Z,50.62
2017-01-24T01:01:25.534Z,50.62
2017-01-24T01:02:35.691Z,50.81
2017-01-24T01:03:45.851Z,50.62
2017-01-24T01:04:55.617Z,50.72
2017-01-24T01:06:05.339Z,50.81
2017-01-24T01:07:15.049Z,50.72
2017-01-24T01:08:25.201Z,50.72
2017-01-24T01:09:34.479Z,50.62
2017-01-24T01:10:44.268Z,50.81
2017-01-24T01:11:54.432Z,50.72
2017-01-24T01:13:04.146Z,50.62
2017-01-24T01:14:14.330Z,50.72
2017-01-24T01:15:24.044Z,51.1
2017-01-24T01:16:34.241Z,51.1
2017-01-24T01:17:44.395Z,50.72
2017-01-24T01:18:54.548Z,50.91
2017-01-24T01:20:03.824Z,50.81
2017-01-24T01:21:14.409Z,50.81
2017-01-24T01:22:23.738Z,50.91
2017-01-24T01:23:33.452Z,51.1
2017-01-24T01:24:43.169Z,51.29
2017-01-24T01:25:52.886Z,51.1
2017-01-24T01:27:02.595Z,51.07
2017-01-24T01:28:13.237Z,51.29
2017-01-24T01:29:23.829Z,51.01
2017-01-24T01:30:33.103Z,51.39
2017-01-24T01:31:42.821Z,51.68
2017-01-24T01:32:52.973Z,51.48
2017-01-24T01:34:03.618Z,51.39
2017-01-24T01:35:13.780Z,51.58
2017-01-24T01:36:23.924Z,51.48
2017-01-24T01:37:34.075Z,51.56
2017-01-24T01:38:43.792Z,51.39
2017-01-24T01:39:53.610Z,51.58
2017-01-24T01:41:03.321Z,52.03
2017-01-24T01:42:13.044Z,51.84
2017-01-24T01:43:23.196Z,52.03
2017-01-24T01:44:33.794Z,51.65
2017-01-24T01:45:43.558Z,51.56
2017-01-24T01:46:54.144Z,51.84
2017-01-24T01:48:03.861Z,52.42
2017-01-24T01:49:14.018Z,52.42
2017-01-24T01:50:23.303Z,52.42
2017-01-24T01:51:32.632Z,52.42
2017-01-24T01:52:42.782Z,52.42
2017-01-24T01:53:52.498Z,52.32
2017-01-24T01:55:02.216Z,51.97
2017-01-24T01:56:11.493Z,51.93
2017-01-24T01:57:21.259Z,51.93
2017-01-24T01:58:30.975Z,52.42
2017-01-24T01:59:40.688Z,52.51
2017-01-24T02:00:50.401Z,52.51
2017-01-24T02:02:00.554Z,52.22
2017-01-24T02:03:10.752Z,52.03
2017-01-24T02:04:20.900Z,52.42
2017-01-24T02:05:30.622Z,52.13
2017-01-24T02:06:40.334Z,52.13
2017-01-24T02:07:49.615Z,52.51
2017-01-24T02:08:59.821Z,52.42
2017-01-24T02:10:09.537Z,52.51
2017-01-24T02:11:19.254Z,52.51
2017-01-24T02:12:29.840Z,52.51
2017-01-24T02:13:39.553Z,52.42
2017-01-24T02:14:49.321Z,52.32
2017-01-24T02:15:59.032Z,52.22
2017-01-24T02:17:08.741Z,52.32
2017-01-24T02:18:18.460Z,52.22
2017-01-24T02:19:28.615Z,52.03
2017-01-24T02:20:38.811Z,52.13
2017-01-24T02:21:48.964Z,52.32
2017-01-24T02:22:58.674Z,52.13
2017-01-24T02:24:09.258Z,52.13
2017-01-24T02:25:19.411Z,52.42
2017-01-24T02:26:29.185Z,52.51
2017-01-24T02:27:39.802Z,52.42
2017-01-24T02:28:49.955Z,52.32
2017-01-24T02:30:00.109Z,52.42
2017-01-24T02:31:09.825Z,52.22
2017-01-24T02:32:20.034Z,52.32
2017-01-24T02:33:30.192Z,52.22
2017-01-24T02:34:40.342Z,52.32
2017-01-24T02:35:50.494Z,52.32
2017-01-24T02:37:00.207Z,52.61
2017-01-24T02:38:09.978Z,52.22
2017-01-24T02:39:19.689Z,52.32
2017-01-24T02:40:28.963Z,52.51
2017-01-24T02:41:38.675Z,52.22
2017-01-24T02:42:47.958Z,52.22
2017-01-24T02:43:58.165Z,52.22
2017-01-24T02:45:07.446Z,52.22
2017-01-24T02:46:17.608Z,52.32
2017-01-24T02:47:27.330Z,52.22
2017-01-24T02:48:36.607Z,52.22
2017-01-24T02:49:45.935Z,52.51
2017-01-24T02:50:55.213Z,52.22
2017-01-24T02:52:05.362Z,52.22
2017-01-24T02:53:15.512Z,52.51
2017-01-24T02:54:25.681Z,52.22
2017-01-24T02:55:35.447Z,52.22
2017-01-24T02:56:46.031Z,52.42
2017-01-24T02:57:55.744Z,52.42
2017-01-24T02:59:05.898Z,52.42
2017-01-24T03:00:15.174Z,52.42
2017-01-24T03:01:25.388Z,52.32
2017-01-24T03:02:35.537Z,52.13
2017-01-24T03:03:46.130Z,52.03
2017-01-24T03:04:56.723Z,52.03
2017-01-24T03:06:06.873Z,52.42
2017-01-24T03:07:16.639Z,52.32
2017-01-24T03:08:26.360Z,52.22
2017-01-24T03:09:36.077Z,52.32
2017-01-24T03:10:45.826Z,52.22
2017-01-24T03:11:55.548Z,52.42
2017-01-24T03:13:05.752Z,52.13
2017-01-24T03:14:15.474Z,52.13
2017-01-24T03:15:25.654Z,52.42
2017-01-24T03:16:35.812Z,52.42
2017-01-24T03:17:45.525Z,52.22
2017-01-24T03:18:56.169Z,52.13
2017-01-24T03:20:06.323Z,52.22
2017-01-24T03:21:16.036Z,52.22
2017-01-24T03:22:25.322Z,52.42
2017-01-24T03:23:35.503Z,52.51
2017-01-24T03:24:45.276Z,52.03
2017-01-24T03:25:54.993Z,52.22
2017-01-24T03:27:04.702Z,52.13
2017-01-24T03:28:13.983Z,52.42
2017-01-24T03:29:24.580Z,52.61
2017-01-24T03:30:35.214Z,52.42
2017-01-24T03:31:44.936Z,52.51
2017-01-24T03:32:55.529Z,52.22
2017-01-24T03:34:06.113Z,52.03
2017-01-24T03:35:15.842Z,52.51
2017-01-24T03:36:26.478Z,52.51
2017-01-24T03:37:36.193Z,52.42
2017-01-24T03:38:45.910Z,52.13
2017-01-24T03:39:55.619Z,52.13
2017-01-24T03:41:05.773Z,52.13
2017-01-24T03:42:15.097Z,52.42
2017-01-24T03:43:24.810Z,52.42
2017-01-24T03:44:35.396Z,52.22
2017-01-24T03:45:45.588Z,52.42
2017-01-24T03:46:55.742Z,52.51
2017-01-24T03:48:06.387Z,52.42
2017-01-24T03:49:16.537Z,52.42
2017-01-24T03:50:26.690Z,52.22
2017-01-24T03:51:36.411Z,52.03
2017-01-24T03:52:45.684Z,52.22
2017-01-24T03:53:56.334Z,52.48
2017-01-24T03:55:05.611Z,52.22
2017-01-24T03:56:15.328Z,52.51
2017-01-24T03:57:25.041Z,52.42
2017-01-24T03:58:35.647Z,52.89
2017-01-24T03:59:45.412Z,52.89
2017-01-24T04:00:55.570Z,52.96
2017-01-24T04:02:05.723Z,53.08
2017-01-24T04:03:16.307Z,52.89
2017-01-24T04:04:26.024Z,53.16
2017-01-24T04:05:35.794Z,53.06
2017-01-24T04:06:45.506Z,53.06
2017-01-24T04:07:55.656Z,53.06
2017-01-24T04:09:05.369Z,53.25
2017-01-24T04:10:15.086Z,52.87
2017-01-24T04:11:25.296Z,52.96
2017-01-24T04:12:35.009Z,52.99
2017-01-24T04:13:44.290Z,52.67
2017-01-24T04:14:54.875Z,52.87
2017-01-24T04:16:04.593Z,52.87
2017-01-24T04:17:14.802Z,52.87
2017-01-24T04:18:24.950Z,52.87
2017-01-24T04:19:35.100Z,53.06
2017-01-24T04:20:45.701Z,52.87
2017-01-24T04:21:55.419Z,52.87
2017-01-24T04:23:05.619Z,52.87
2017-01-24T04:24:15.347Z,52.87
2017-01-24T04:25:26.381Z,53.16
2017-01-24T04:26:36.969Z,53.16
2017-01-24T04:27:46.241Z,53.16
2017-01-24T04:28:56.005Z,53.06
2017-01-24T04:30:06.591Z,52.96
2017-01-24T04:31:16.309Z,53.06
2017-01-24T04:32:26.462Z,53.16
2017-01-24T04:33:36.179Z,52.96
2017-01-24T04:34:45.508Z,52.87
2017-01-24T04:35:55.657Z,52.96
2017-01-24T04:37:05.378Z,53.06
2017-01-24T04:38:15.100Z,53.06
2017-01-24T04:39:24.377Z,52.96
2017-01-24T04:40:33.710Z,53.16
2017-01-24T04:41:43.859Z,52.96
2017-01-24T04:42:54.016Z,52.87
2017-01-24T04:44:04.170Z,52.87
2017-01-24T04:45:14.327Z,53.06
2017-01-24T04:46:24.096Z,53.06
2017-01-24T04:47:34.690Z,52.87
2017-01-24T04:48:45.282Z,52.87
2017-01-24T04:49:55.876Z,52.96
2017-01-24T04:51:05.592Z,53.06
2017-01-24T04:52:15.354Z,52.67
2017-01-24T04:53:24.624Z,52.96
2017-01-24T04:54:34.341Z,52.96
2017-01-24T04:55:44.053Z,52.87
2017-01-24T04:56:53.766Z,52.87
2017-01-24T04:58:03.680Z,52.96
2017-01-24T04:59:13.833Z,52.96
2017-01-24T05:00:24.418Z,52.77
2017-01-24T05:01:34.580Z,52.87
2017-01-24T05:02:44.734Z,52.87
2017-01-24T05:03:54.499Z,52.87
2017-01-24T05:05:04.651Z,52.96
2017-01-24T05:06:14.801Z,52.87
2017-01-24T05:07:24.518Z,52.96
2017-01-24T05:08:35.107Z,53.06
2017-01-24T05:09:45.315Z,52.87
2017-01-24T05:10:55.030Z,52.96
2017-01-24T05:12:04.751Z,52.87
2017-01-24T05:13:14.476Z,52.87
2017-01-24T05:14:24.193Z,52.96
2017-01-24T05:15:34.492Z,52.87
2017-01-24T05:16:45.087Z,53.06
2017-01-24T05:17:54.365Z,52.87
2017-01-24T05:19:04.527Z,52.96
2017-01-24T05:20:14.244Z,52.87
2017-01-24T05:21:24.444Z,53.16
2017-01-24T05:22:34.606Z,52.87
2017-01-24T05:23:43.882Z,53.06
2017-01-24T05:24:53.157Z,53.06
2017-01-24T05:26:03.313Z,53.16
2017-01-24T05:27:13.082Z,53.53
2017-01-24T05:28:23.231Z,53.06
2017-01-24T05:29:33.820Z,53.06
2017-01-24T05:30:43.975Z,53.44
2017-01-24T05:31:54.128Z,52.67
2017-01-24T05:33:04.332Z,52.96
2017-01-24T05:34:14.042Z,52.87
2017-01-24T05:35:24.190Z,53.16
2017-01-24T05:36:34.339Z,52.87
2017-01-24T05:37:44.493Z,52.87
2017-01-24T05:38:54.262Z,53.06
2017-01-24T05:40:04.420Z,53.16
2017-01-24T05:41:14.137Z,53.16
2017-01-24T05:42:23.860Z,52.48
2017-01-24T05:43:33.571Z,53.16
2017-01-24T05:44:43.780Z,52.87
2017-01-24T05:45:53.493Z,52.87
2017-01-24T05:47:02.766Z,52.96
2017-01-24T05:48:13.361Z,52.87
2017-01-24T05:49:23.952Z,52.96
2017-01-24T05:50:34.590Z,52.58
2017-01-24T05:51:44.764Z,52.2
2017-01-24T05:52:54.914Z,52.48
2017-01-24T05:54:05.071Z,52.48
2017-01-24T05:55:16.547Z,52.29
2017-01-24T05:56:26.660Z,52.29
2017-01-24T05:57:36.581Z,52.2
2017-01-24T05:58:47.010Z,52.39
2017-01-24T05:59:57.219Z,52.01
2017-01-24T06:01:07.385Z,52.39
2017-01-24T06:02:18.181Z,52.1
2017-01-24T06:03:27.898Z,52.48
2017-01-24T06:04:37.633Z,53.06
2017-01-24T06:05:47.346Z,53.25
2017-01-24T06:06:57.502Z,53.06
2017-01-24T06:08:06.832Z,53.16
2017-01-24T06:09:16.545Z,53.06
2017-01-24T06:10:26.262Z,53.06
2017-01-24T06:11:35.975Z,52.96
2017-01-24T06:12:46.132Z,53.06
2017-01-24T06:13:56.325Z,52.67
2017-01-24T06:15:06.053Z,52.67
2017-01-24T06:16:15.779Z,52.67
2017-01-24T06:17:26.369Z,52.87
2017-01-24T06:18:36.087Z,52.96
2017-01-24T06:19:46.283Z,52.87
2017-01-24T06:20:56.441Z,53.06
2017-01-24T06:22:05.717Z,52.96
2017-01-24T06:23:15.006Z,52.87
2017-01-24T06:24:25.604Z,53.16
2017-01-24T06:25:35.377Z,52.96
2017-01-24T06:26:45.535Z,52.58
2017-01-24T06:27:56.125Z,52.58
2017-01-24T06:29:06.717Z,52.48
2017-01-24T06:30:16.870Z,52.1
2017-01-24T06:31:27.075Z,52.1
2017-01-24T06:32:38.122Z,52.2
2017-01-24T06:33:47.833Z,52.48
2017-01-24T06:34:57.119Z,52.2
2017-01-24T06:36:06.392Z,52.2
2017-01-24T06:37:16.600Z,52.29
2017-01-24T06:38:26.314Z,51.81
2017-01-24T06:39:36.907Z,52.1
2017-01-24T06:40:47.501Z,51.81
2017-01-24T06:41:57.654Z,51.91
2017-01-24T06:43:06.985Z,51.72
2017-01-24T06:44:16.272Z,51.62
2017-01-24T06:45:26.429Z,51.81
2017-01-24T06:46:36.579Z,51.72
2017-01-24T06:47:46.292Z,51.62
2017-01-24T06:48:56.060Z,51.43
2017-01-24T06:50:06.213Z,51.34
2017-01-24T06:51:15.970Z,51.43
2017-01-24T06:52:25.683Z,51.34
2017-01-24T06:53:36.273Z,51.34
2017-01-24T06:54:45.597Z,51.53
2017-01-24T06:55:55.751Z,51.34
2017-01-24T06:57:05.909Z,51.53
2017-01-24T06:58:15.181Z,51.43
2017-01-24T06:59:24.898Z,51.53
2017-01-24T07:00:34.660Z,51.62
2017-01-24T07:01:45.254Z,51.43
2017-01-24T07:02:54.967Z,51.53
2017-01-24T07:04:04.684Z,51.43
2017-01-24T07:05:14.397Z,51.53
2017-01-24T07:06:24.166Z,51.53
2017-01-24T07:07:33.443Z,51.72
2017-01-24T07:08:43.597Z,51.81
2017-01-24T07:09:52.871Z,51.62
2017-01-24T07:11:02.591Z,51.53
2017-01-24T07:12:12.795Z,51.34
2017-01-24T07:13:22.949Z,51.34
2017-01-24T07:14:32.663Z,51.05
2017-01-24T07:15:42.383Z,50.95
2017-01-24T07:16:52.532Z,50.95
2017-01-24T07:18:02.890Z,50.95
2017-01-24T07:19:12.631Z,50.86
2017-01-24T07:20:22.804Z,50.95
2017-01-24T07:21:32.522Z,50.95
2017-01-24T07:22:42.234Z,50.86
2017-01-24T07:23:52.439Z,51.05
2017-01-24T07:25:02.157Z,50.67
2017-01-24T07:26:13.193Z,50.67
2017-01-24T07:27:23.351Z,50.86
2017-01-24T07:28:33.512Z,51.15
2017-01-24T07:29:43.281Z,51.15
2017-01-24T07:30:53.870Z,51.05
2017-01-24T07:32:03.586Z,50.67
2017-01-24T07:33:13.740Z,50.95
2017-01-24T07:34:23.918Z,50.67
2017-01-24T07:35:33.679Z,50.57
2017-01-24T07:36:43.396Z,50.67
2017-01-24T07:37:53.113Z,50.86
2017-01-24T07:39:03.706Z,50.57
2017-01-24T07:40:14.299Z,50.67
2017-01-24T07:41:24.496Z,50.57
2017-01-24T07:42:34.236Z,50.76
2017-01-24T07:43:43.518Z,50.76
2017-01-24T07:44:52.795Z,50.67
2017-01-24T07:46:02.074Z,50.57
2017-01-24T07:47:11.841Z,50.57
2017-01-24T07:48:21.555Z,50.67
2017-01-24T07:49:31.268Z,50.67
2017-01-24T07:50:40.554Z,50.57
2017-01-24T07:51:50.718Z,50.38
2017-01-24T07:53:00.483Z,50.76
2017-01-24T07:54:10.637Z,50.48
2017-01-24T07:55:19.913Z,50.67
2017-01-24T07:56:29.199Z,50.86
2017-01-24T07:57:38.480Z,50.57
2017-01-24T07:58:48.701Z,50.86
2017-01-24T07:59:58.850Z,50.57
2017-01-24T08:01:08.572Z,50.57
2017-01-24T08:02:19.168Z,50.67
2017-01-24T08:03:29.317Z,50.57
2017-01-24T08:04:39.082Z,50.67
2017-01-24T08:05:49.686Z,50.67
2017-01-24T08:06:59.833Z,50.57
2017-01-24T08:08:09.550Z,50.76
2017-01-24T08:09:18.825Z,50.86
2017-01-24T08:10:28.589Z,50.86
2017-01-24T08:11:38.745Z,50.29
2017-01-24T08:12:48.460Z,50.86
2017-01-24T08:13:59.044Z,50.67
2017-01-24T08:15:09.215Z,50.48
2017-01-24T08:16:18.982Z,50.48
2017-01-24T08:17:28.700Z,50.19
2017-01-24T08:18:37.976Z,49.9
2017-01-24T08:19:48.578Z,50.29
2017-01-24T08:20:58.727Z,50.19
2017-01-24T08:22:08.952Z,50.48
2017-01-24T08:23:18.233Z,50.48
2017-01-24T08:24:28.395Z,50.19
2017-01-24T08:25:38.548Z,50.19
2017-01-24T08:26:47.821Z,50.29
2017-01-24T08:27:57.586Z,50.19
2017-01-24T08:29:06.869Z,50.19
2017-01-24T08:30:17.020Z,50.38
2017-01-24T08:31:27.606Z,50.19
2017-01-24T08:32:36.912Z,50.19
2017-01-24T08:33:46.680Z,50.38
2017-01-24T08:34:56.401Z,50.09
2017-01-24T08:36:05.682Z,50.57
2017-01-24T08:37:15.405Z,50.57
2017-01-24T08:38:25.557Z,50.48
2017-01-24T08:39:34.882Z,50.48
2017-01-24T08:40:44.166Z,50.48
2017-01-24T08:41:53.444Z,50.48
2017-01-24T08:43:03.165Z,50.19
2017-01-24T08:44:12.874Z,50.09
2017-01-24T08:45:22.644Z,50.57
2017-01-24T08:46:32.793Z,50
2017-01-24T08:47:42.510Z,50.38
2017-01-24T08:48:52.687Z,49.62
2017-01-24T08:50:03.281Z,50.09
2017-01-24T08:51:13.941Z,50.19
2017-01-24T08:52:24.095Z,50.09
2017-01-24T08:53:33.811Z,49.71
2017-01-24T08:54:44.841Z,49.52
2017-01-24T08:55:54.994Z,49.8
2017-01-24T08:57:04.320Z,49.62
2017-01-24T08:58:14.041Z,49.8
2017-01-24T08:59:24.193Z,49.8
2017-01-24T09:00:33.910Z,49.71
2017-01-24T09:01:44.064Z,49.62
2017-01-24T09:02:53.837Z,49.62
2017-01-24T09:04:03.118Z,49.71
2017-01-24T09:05:12.395Z,49.52
2017-01-24T09:06:22.552Z,49.52
2017-01-24T09:07:32.274Z,49.71
2017-01-24T09:08:42.039Z,49.8
2017-01-24T09:09:51.316Z,49.9
2017-01-24T09:11:01.038Z,49.9
2017-01-24T09:12:10.318Z,49.9
2017-01-24T09:13:20.915Z,49.9
2017-01-24T09:14:30.676Z,49.8
2017-01-24T09:15:40.831Z,50
2017-01-24T09:16:50.547Z,49.8
2017-01-24T09:18:00.700Z,49.9
2017-01-24T09:19:11.289Z,49.9
2017-01-24T09:20:21.054Z,49.9
2017-01-24T09:21:30.772Z,49.8
2017-01-24T09:22:40.485Z,49.9
2017-01-24T09:23:50.638Z,49.9
2017-01-24T09:25:00.791Z,49.8
2017-01-24T09:26:10.115Z,50
2017-01-24T09:27:20.705Z,49.33
2017-01-24T09:28:29.982Z,49.33
2017-01-24T09:29:39.700Z,49.52
2017-01-24T09:30:49.853Z,49.52
2017-01-24T09:32:00.050Z,49.23
2017-01-24T09:33:10.204Z,49.33
2017-01-24T09:34:19.912Z,48.85
2017-01-24T09:35:30.498Z,48.47
2017-01-24T09:36:40.652Z,48.66
2017-01-24T09:37:50.416Z,48.18
2017-01-24T09:39:00.570Z,48.57
2017-01-24T09:40:10.287Z,48.38
2017-01-24T09:41:20.453Z,48.57
2017-01-24T09:42:29.729Z,48.38
2017-01-24T09:43:40.370Z,47.99
2017-01-24T09:44:50.083Z,47.71
2017-01-24T09:45:59.799Z,48.09
2017-01-24T09:47:09.515Z,48.28
2017-01-24T09:48:19.235Z,48.28
2017-01-24T09:49:29.007Z,47.99
2017-01-24T09:50:38.730Z,47.8
2017-01-24T09:51:48.446Z,47.52
2017-01-24T09:52:58.167Z,47.52
2017-01-24T09:54:07.470Z,47.42
2017-01-24T09:55:16.895Z,47.32
2017-01-24T09:56:26.616Z,47.32
2017-01-24T09:57:37.209Z,47.52
2017-01-24T09:58:47.802Z,47.61
2017-01-24T09:59:57.951Z,47.23
2017-01-24T10:01:07.280Z,47.13
2017-01-24T10:02:16.993Z,47.23
2017-01-24T10:03:26.711Z,47.03
2017-01-24T10:04:36.868Z,47.23
2017-01-24T10:05:47.897Z,47.32
2017-01-24T10:06:58.693Z,47.32
2017-01-24T10:08:08.408Z,47.32
2017-01-24T10:09:18.570Z,47.13
2017-01-24T10:10:28.730Z,47.13
2017-01-24T10:11:38.448Z,47.23
2017-01-24T10:12:49.093Z,47.32
2017-01-24T10:13:58.378Z,47.13
2017-01-24T10:15:08.087Z,47.32
2017-01-24T10:16:18.240Z,46.94
2017-01-24T10:17:28.829Z,47.32
2017-01-24T10:18:39.034Z,47.32
2017-01-24T10:19:49.188Z,47.23
2017-01-24T10:20:58.473Z,47.03
2017-01-24T10:22:08.626Z,47.13
2017-01-24T10:23:18.775Z,47.03
2017-01-24T10:24:28.984Z,46.84
2017-01-24T10:25:39.141Z,47.03
2017-01-24T10:26:48.416Z,47.42
2017-01-24T10:27:59.043Z,46.94
2017-01-24T10:29:08.317Z,47.13
2017-01-24T10:30:18.102Z,47.42
2017-01-24T10:31:27.384Z,47.03
2017-01-24T10:32:37.100Z,46.94
2017-01-24T10:33:48.138Z,47.42
2017-01-24T10:34:57.848Z,47.61
2017-01-24T10:36:08.049Z,47.13
2017-01-24T10:37:17.765Z,47.23
2017-01-24T10:38:27.919Z,47.32
2017-01-24T10:39:37.632Z,47.32
2017-01-24T10:40:46.912Z,47.42
2017-01-24T10:41:56.242Z,47.32
2017-01-24T10:43:06.396Z,47.42
2017-01-24T10:44:16.145Z,47.52
2017-01-24T10:45:25.866Z,47.42
2017-01-24T10:46:36.024Z,47.42
2017-01-24T10:47:45.820Z,47.32
2017-01-24T10:48:55.093Z,47.32
2017-01-24T10:50:04.807Z,47.42
2017-01-24T10:51:14.534Z,47.42
2017-01-24T10:52:25.118Z,47.42
2017-01-24T10:53:35.323Z,47.23
2017-01-24T10:54:45.051Z,47.42
2017-01-24T10:55:55.644Z,47.23
2017-01-24T10:57:05.794Z,47.52
2017-01-24T10:58:15.073Z,47.42
2017-01-24T10:59:24.840Z,47.71
2017-01-24T11:00:34.997Z,47.71
2017-01-24T11:01:45.153Z,47.42
2017-01-24T11:02:54.436Z,47.23
2017-01-24T11:04:04.142Z,47.71
2017-01-24T11:05:13.914Z,47.32
2017-01-24T11:06:23.629Z,47.42
2017-01-24T11:07:33.341Z,47.23
2017-01-24T11:08:43.498Z,47.42
2017-01-24T11:09:52.772Z,47.32
2017-01-24T11:11:02.532Z,47.23
2017-01-24T11:12:13.132Z,47.61
2017-01-24T11:13:22.852Z,47.52
2017-01-24T11:14:33.008Z,47.42
2017-01-24T11:15:43.161Z,47.52
2017-01-24T11:16:52.935Z,47.52
2017-01-24T11:18:03.523Z,47.03
2017-01-24T11:19:13.681Z,47.23
2017-01-24T11:20:23.841Z,47.32
2017-01-24T11:21:33.118Z,47.32
2017-01-24T11:22:43.328Z,47.03
2017-01-24T11:23:52.601Z,47.42
2017-01-24T11:25:02.758Z,47.42
2017-01-24T11:26:13.355Z,47.32
2017-01-24T11:27:23.097Z,47.03
2017-01-24T11:28:32.858Z,46.94
2017-01-24T11:29:42.571Z,46.84
2017-01-24T11:30:52.288Z,47.71
2017-01-24T11:32:01.566Z,46.94
2017-01-24T11:33:11.276Z,47.23
2017-01-24T11:34:21.480Z,47.03
2017-01-24T11:35:31.636Z,46.94
2017-01-24T11:36:41.798Z,47.23
2017-01-24T11:37:52.392Z,47.03
2017-01-24T11:39:02.984Z,47.23
2017-01-24T11:40:12.316Z,47.13
2017-01-24T11:41:22.467Z,46.84
2017-01-24T11:42:32.184Z,47.32
2017-01-24T11:43:42.333Z,46.94
2017-01-24T11:44:52.046Z,47.8
2017-01-24T11:46:01.811Z,46.84
2017-01-24T11:47:11.093Z,47.32
2017-01-24T11:48:21.249Z,47.42
2017-01-24T11:49:30.967Z,47.23
2017-01-24T11:50:41.143Z,47.32
2017-01-24T11:51:51.013Z,46.84
2017-01-24T11:53:02.050Z,46.94
2017-01-24T11:54:11.766Z,47.32
2017-01-24T11:55:21.934Z,46.94
2017-01-24T11:56:32.085Z,47.13
2017-01-24T11:57:42.286Z,47.03
2017-01-24T11:58:52.437Z,47.23
2017-01-24T12:00:03.029Z,46.94
2017-01-24T12:01:12.306Z,46.66
2017-01-24T12:02:22.023Z,47.13
2017-01-24T12:03:31.353Z,46.46
2017-01-24T12:04:41.510Z,47.23
2017-01-24T12:05:52.127Z,47.03
2017-01-24T12:07:01.846Z,47.13
2017-01-24T12:08:11.566Z,47.13
2017-01-24T12:09:21.335Z,47.13
2017-01-24T12:10:31.056Z,47.23
2017-01-24T12:11:40.776Z,47.03
2017-01-24T12:12:50.934Z,46.46
2017-01-24T12:14:01.092Z,47.03
2017-01-24T12:15:10.864Z,47.23
2017-01-24T12:16:20.601Z,47.03
2017-01-24T12:17:30.336Z,47.03
2017-01-24T12:18:40.049Z,47.03
2017-01-24T12:19:49.336Z,46.94
2017-01-24T12:20:58.673Z,46.84
2017-01-24T12:22:08.828Z,47.13
2017-01-24T12:23:18.544Z,46.84
2017-01-24T12:24:28.266Z,46.66
2017-01-24T12:25:38.428Z,46.94
2017-01-24T12:26:48.193Z,46.94
2017-01-24T12:27:57.908Z,46.94
2017-01-24T12:29:08.067Z,46.75
2017-01-24T12:30:17.780Z,46.84
2017-01-24T12:31:27.501Z,46.84
2017-01-24T12:32:36.982Z,46.84
2017-01-24T12:33:46.263Z,46.94
2017-01-24T12:34:55.540Z,46.96
2017-01-24T12:36:05.258Z,46.84
2017-01-24T12:37:14.975Z,46.75
2017-01-24T12:38:24.303Z,46.84
2017-01-24T12:39:34.021Z,46.75
2017-01-24T12:40:43.743Z,46.75
2017-01-24T12:41:53.459Z,46.94
2017-01-24T12:43:03.173Z,46.94
2017-01-24T12:44:12.969Z,46.75
2017-01-24T12:45:22.242Z,46.66
2017-01-24T12:46:32.399Z,46.56
2017-01-24T12:47:42.109Z,46.84
2017-01-24T12:48:51.830Z,47.13
2017-01-24T12:50:02.035Z,47.13
2017-01-24T12:51:12.192Z,46.84
2017-01-24T12:52:21.905Z,46.84
2017-01-24T12:53:32.059Z,46.75
2017-01-24T12:54:41.777Z,46.84
2017-01-24T12:55:52.425Z,46.84
2017-01-24T12:57:03.014Z,46.94
2017-01-24T12:58:13.167Z,46.94
2017-01-24T12:59:22.885Z,46.75
2017-01-24T13:00:32.598Z,46.84
2017-01-24T13:01:42.363Z,46.84
2017-01-24T13:02:52.081Z,46.84
2017-01-24T13:04:01.802Z,46.94
2017-01-24T13:05:11.079Z,46.84
2017-01-24T13:06:20.796Z,47.03
2017-01-24T13:07:31.884Z,46.84
2017-01-24T13:08:42.037Z,47.03
2017-01-24T13:09:52.195Z,46.84
2017-01-24T13:11:01.908Z,46.94
2017-01-24T13:12:12.065Z,46.84
2017-01-24T13:13:22.257Z,46.94
2017-01-24T13:14:32.411Z,46.94
2017-01-24T13:15:42.132Z,46.84
2017-01-24T13:16:52.290Z,46.94
2017-01-24T13:18:02.879Z,46.84
2017-01-24T13:19:13.536Z,46.66
2017-01-24T13:20:23.249Z,46.75
2017-01-24T13:21:33.406Z,46.75
2017-01-24T13:22:43.119Z,46.84
2017-01-24T13:23:52.836Z,46.94
2017-01-24T13:25:03.037Z,46.84
2017-01-24T13:26:12.763Z,46.94
2017-01-24T13:27:22.476Z,46.94
2017-01-24T13:28:32.192Z,46.84
2017-01-24T13:29:41.468Z,46.84
2017-01-24T13:30:51.671Z,46.94
2017-01-24T13:32:01.396Z,47.13
2017-01-24T13:33:10.708Z,47.03
2017-01-24T13:34:20.422Z,46.94
2017-01-24T13:35:30.138Z,47.03
2017-01-24T13:36:40.340Z,47.23
2017-01-24T13:37:50.489Z,47.03
2017-01-24T13:39:00.651Z,47.03
2017-01-24T13:40:10.359Z,46.94
2017-01-24T13:41:19.640Z,47.03
2017-01-24T13:42:28.969Z,46.94
2017-01-24T13:43:38.249Z,47.23
2017-01-24T13:44:48.402Z,47.13
2017-01-24T13:45:58.112Z,47.13
2017-01-24T13:47:07.846Z,47.23
2017-01-24T13:48:17.610Z,47.03
2017-01-24T13:49:27.768Z,47.23
2017-01-24T13:50:37.040Z,47.03
2017-01-24T13:51:47.185Z,47.23
2017-01-24T13:52:56.909Z,47.03
2017-01-24T13:54:07.112Z,47.32
2017-01-24T13:55:16.824Z,47.52
2017-01-24T13:56:26.975Z,47.03
2017-01-24T13:57:36.695Z,47.13
2017-01-24T13:58:45.971Z,47.03
2017-01-24T13:59:56.615Z,47.03
2017-01-24T14:01:06.333Z,47.23
2017-01-24T14:02:16.047Z,47.23
2017-01-24T14:03:26.207Z,47.13
2017-01-24T14:04:35.480Z,46.94
2017-01-24T14:05:45.690Z,46.94
2017-01-24T14:06:55.842Z,47.03
2017-01-24T14:08:05.554Z,46.84
2017-01-24T14:09:15.708Z,46.66
2017-01-24T14:10:26.740Z,47.03
2017-01-24T14:11:36.509Z,46.94
2017-01-24T14:12:46.226Z,46.75
2017-01-24T14:13:55.947Z,46.94
2017-01-24T14:15:06.103Z,47.03
2017-01-24T14:16:15.817Z,47.03
2017-01-24T14:17:26.033Z,46.75
2017-01-24T14:18:35.754Z,46.94
2017-01-24T14:19:46.345Z,47.03
2017-01-24T14:20:55.617Z,47.13
2017-01-24T14:22:05.331Z,46.94
2017-01-24T14:23:14.695Z,47.32
2017-01-24T14:24:24.896Z,47.03
2017-01-24T14:25:35.493Z,47.13
2017-01-24T14:26:45.242Z,47.13
2017-01-24T14:27:54.960Z,47.13
2017-01-24T14:29:04.728Z,47.71
2017-01-24T14:30:14.900Z,47.71
2017-01-24T14:31:25.058Z,47.8
2017-01-24T14:32:34.767Z,46.84
2017-01-24T14:33:44.049Z,47.13
2017-01-24T14:34:53.814Z,46.94
2017-01-24T14:36:04.415Z,47.23
2017-01-24T14:37:14.157Z,47.2
2017-01-24T14:38:24.748Z,47.3
2017-01-24T14:39:34.488Z,47.11
2017-01-24T14:40:44.256Z,47.3
2017-01-24T14:41:54.856Z,47.2
2017-01-24T14:43:04.143Z,46.92
2017-01-24T14:44:14.295Z,47.39
2017-01-24T14:45:24.453Z,47.11
2017-01-24T14:46:34.657Z,47.11
2017-01-24T14:47:44.367Z,47.11
2017-01-24T14:48:54.515Z,47.58
2017-01-24T14:50:05.108Z,47.49
2017-01-24T14:51:16.143Z,47.2
2017-01-24T14:52:25.472Z,47.3
2017-01-24T14:53:35.629Z,47.23
2017-01-24T14:54:46.228Z,47.32
2017-01-24T14:55:55.944Z,47.71
2017-01-24T14:57:05.224Z,47.32
2017-01-24T14:58:14.553Z,47.52
2017-01-24T14:59:23.834Z,47.61
2017-01-24T15:00:33.123Z,47.61
2017-01-24T15:01:43.285Z,47.13
2017-01-24T15:02:53.441Z,47.23